createdAt,value
2018-03-17T00:00:08.440Z,1.50
2018-03-17T00:02:37.441Z,1.57
2018-03-17T00:05:06.503Z,1.60
2018-03-17T00:07:35.574Z,1.60
2018-03-17T00:10:04.638Z,1.50
2018-03-17T00:12:33.701Z,1.63
2018-03-17T00:15:03.086Z,1.47
2018-03-17T00:17:31.953Z,1.53
2018-03-17T00:20:02.746Z,1.57
2018-03-17T00:22:31.834Z,1.50
2018-03-17T00:25:00.894Z,1.73
2018-03-17T00:27:29.985Z,1.50
2018-03-17T00:29:59.070Z,1.53
2018-03-17T00:32:28.129Z,1.60
2018-03-17T00:34:57.193Z,1.40
2018-03-17T00:37:26.270Z,1.43
2018-03-17T00:39:55.325Z,1.40
2018-03-17T00:42:24.374Z,1.30
2018-03-17T00:44:53.774Z,1.40
2018-03-17T00:47:22.833Z,1.67
2018-03-17T00:49:51.885Z,1.50
2018-03-17T00:52:20.986Z,1.20
2018-03-17T00:54:50.041Z,1.50
2018-03-17T00:57:19.101Z,1.60
2018-03-17T00:59:48.452Z,1.70
2018-03-17T01:02:17.502Z,1.43
2018-03-17T01:04:46.571Z,1.60
2018-03-17T01:07:15.695Z,1.47
2018-03-17T01:09:44.871Z,1.60
2018-03-17T01:12:13.927Z,1.40
2018-03-17T01:14:43.336Z,1.40
2018-03-17T01:17:12.225Z,1.67
2018-03-17T01:19:41.322Z,1.47
2018-03-17T01:22:10.425Z,1.60
2018-03-17T01:24:39.481Z,1.40
2018-03-17T01:27:08.535Z,1.60
2018-03-17T01:29:37.624Z,1.63
2018-03-17T01:32:06.698Z,1.50
2018-03-17T01:34:35.754Z,1.40
2018-03-17T01:37:05.097Z,1.40
2018-03-17T01:39:34.145Z,1.60
2018-03-17T01:42:03.240Z,1.40
2018-03-17T01:44:32.309Z,1.60
2018-03-17T01:47:01.371Z,1.47
2018-03-17T01:49:30.431Z,1.30
2018-03-17T01:51:59.506Z,1.67
2018-03-17T01:54:31.761Z,1.40
2018-03-17T01:57:01.229Z,1.27
2018-03-17T01:59:30.302Z,1.30
2018-03-17T02:01:59.361Z,1.30
2018-03-17T02:04:28.809Z,1.43
2018-03-17T02:06:57.874Z,1.70
2018-03-17T02:09:26.929Z,1.33
2018-03-17T02:11:56.301Z,1.40
2018-03-17T02:14:25.367Z,1.37
2018-03-17T02:16:54.437Z,1.70
2018-03-17T02:19:24.004Z,1.30
2018-03-17T02:21:53.060Z,1.37
2018-03-17T02:24:22.119Z,1.50
2018-03-17T02:26:51.214Z,1.27
2018-03-17T02:29:20.269Z,1.20
2018-03-17T02:31:49.322Z,1.40
2018-03-17T02:34:18.782Z,1.30
2018-03-17T02:36:47.852Z,1.30
2018-03-17T02:39:16.903Z,1.47
2018-03-17T02:41:45.986Z,1.77
2018-03-17T02:44:15.053Z,1.20
2018-03-17T02:46:44.118Z,1.50
2018-03-17T02:49:13.554Z,1.30
2018-03-17T02:51:42.614Z,1.23
2018-03-17T02:54:11.663Z,1.40
2018-03-17T02:56:41.040Z,1.37
2018-03-17T02:59:09.862Z,1.33
2018-03-17T03:01:38.931Z,1.40
2018-03-17T03:04:08.341Z,1.40
2018-03-17T03:06:37.406Z,1.10
2018-03-17T03:09:07.250Z,1.40
2018-03-17T03:11:36.632Z,1.60
2018-03-17T03:14:05.689Z,1.30
2018-03-17T03:16:34.758Z,1.23
2018-03-17T03:19:04.225Z,1.40
2018-03-17T03:21:33.286Z,1.47
2018-03-17T03:24:02.355Z,1.40
2018-03-17T03:26:31.445Z,1.40
2018-03-17T03:29:00.504Z,1.30
2018-03-17T03:31:29.557Z,1.47
2018-03-17T03:33:59.003Z,1.23
2018-03-17T03:36:28.058Z,1.50
2018-03-17T03:38:57.118Z,1.40
2018-03-17T03:41:26.040Z,1.47
2018-03-17T03:43:55.167Z,1.53
2018-03-17T03:46:24.225Z,1.50
2018-03-17T03:48:53.302Z,1.37
2018-03-17T03:51:22.359Z,1.20
2018-03-17T03:53:51.414Z,1.50
2018-03-17T03:56:20.849Z,1.40
2018-03-17T03:58:49.900Z,1.57
2018-03-17T04:01:18.989Z,1.13
2018-03-17T04:03:48.524Z,1.50
2018-03-17T04:06:17.582Z,1.10
2018-03-17T04:08:46.640Z,1.30
2018-03-17T04:11:15.718Z,1.40
2018-03-17T04:13:44.774Z,1.10
2018-03-17T04:16:13.833Z,1.50
2018-03-17T04:18:43.225Z,1.20
2018-03-17T04:21:12.099Z,1.30
2018-03-17T04:23:41.162Z,1.40
2018-03-17T04:26:10.614Z,1.10
2018-03-17T04:28:39.519Z,1.20
2018-03-17T04:31:08.529Z,1.20
2018-03-17T04:33:37.916Z,1.00
2018-03-17T04:36:06.981Z,1.20
2018-03-17T04:38:36.054Z,1.10
2018-03-17T04:41:05.502Z,1.00
2018-03-17T04:43:34.557Z,1.20
2018-03-17T04:46:03.609Z,1.30
2018-03-17T04:48:32.982Z,1.30
2018-03-17T04:51:02.043Z,1.30
2018-03-17T04:53:31.110Z,1.40
2018-03-17T04:56:00.593Z,1.13
2018-03-17T04:58:29.657Z,1.00
2018-03-17T05:00:58.721Z,1.30
2018-03-17T05:03:27.977Z,1.20
2018-03-17T05:05:57.123Z,1.50
2018-03-17T05:08:26.193Z,1.20
2018-03-17T05:10:55.662Z,1.53
2018-03-17T05:13:24.726Z,1.07
2018-03-17T05:15:53.790Z,1.40
2018-03-17T05:18:22.861Z,1.30
2018-03-17T05:20:51.914Z,1.27
2018-03-17T05:23:20.966Z,1.43
2018-03-17T05:25:49.926Z,1.20
2018-03-17T05:28:18.991Z,1.50
2018-03-17T05:30:48.057Z,1.20
2018-03-17T05:33:17.150Z,1.30
2018-03-17T05:35:46.224Z,1.00
2018-03-17T05:38:15.277Z,1.40
2018-03-17T05:40:44.695Z,1.30
2018-03-17T05:43:13.820Z,1.50
2018-03-17T05:45:43.050Z,1.03
2018-03-17T05:48:12.905Z,1.40
2018-03-17T05:50:41.967Z,1.40
2018-03-17T05:53:11.019Z,1.47
2018-03-17T05:55:40.516Z,1.23
2018-03-17T05:58:09.566Z,1.20
2018-03-17T06:00:38.533Z,0.83
2018-03-17T06:03:07.901Z,1.27
2018-03-17T06:05:36.982Z,1.40
2018-03-17T06:08:06.069Z,1.60
2018-03-17T06:10:35.484Z,1.33
2018-03-17T06:13:04.554Z,1.33
2018-03-17T06:15:50.557Z,1.23
2018-03-17T06:18:19.622Z,1.53
2018-03-17T06:20:48.689Z,1.07
2018-03-17T06:23:17.787Z,1.13
2018-03-17T06:25:46.845Z,1.40
2018-03-17T06:28:15.898Z,1.27
2018-03-17T06:30:45.028Z,1.17
2018-03-17T06:33:14.250Z,1.20
2018-03-17T06:35:43.311Z,1.33
2018-03-17T06:38:13.040Z,1.23
2018-03-17T06:40:42.103Z,1.43
2018-03-17T06:43:11.168Z,1.00
2018-03-17T06:45:40.534Z,1.30
2018-03-17T06:48:09.626Z,1.30
2018-03-17T06:50:38.690Z,1.23
2018-03-17T06:53:07.781Z,1.33
2018-03-17T06:55:36.837Z,1.43
2018-03-17T06:58:05.891Z,1.43
2018-03-17T07:00:35.348Z,1.37
2018-03-17T07:03:04.578Z,1.27
2018-03-17T07:05:33.634Z,1.07
2018-03-17T07:08:03.114Z,1.10
2018-03-17T07:10:32.174Z,1.20
2018-03-17T07:13:01.246Z,1.40
2018-03-17T07:15:30.317Z,1.20
2018-03-17T07:17:59.374Z,1.30
2018-03-17T07:20:28.439Z,1.50
2018-03-17T07:22:57.771Z,1.20
2018-03-17T07:25:26.854Z,1.47
2018-03-17T07:27:56.118Z,1.40
2018-03-17T07:30:25.200Z,1.40
2018-03-17T07:32:54.259Z,1.53
2018-03-17T07:35:23.314Z,1.50
2018-03-17T07:37:52.780Z,1.40
2018-03-17T07:40:21.854Z,1.30
2018-03-17T07:42:50.910Z,1.50
2018-03-17T07:45:20.047Z,1.20
2018-03-17T07:47:49.695Z,1.50
2018-03-17T07:50:19.062Z,1.30
2018-03-17T07:52:48.772Z,1.30
2018-03-17T07:55:17.878Z,1.40
2018-03-17T07:57:47.253Z,1.40
2018-03-17T08:00:17.399Z,1.20
2018-03-17T08:02:47.232Z,1.60
2018-03-17T08:05:17.184Z,1.37
2018-03-17T08:07:46.859Z,1.20
2018-03-17T08:10:16.773Z,1.60
2018-03-17T08:12:46.782Z,1.30
2018-03-17T08:15:16.496Z,1.30
2018-03-17T08:17:45.551Z,1.40
2018-03-17T08:20:14.606Z,1.43
2018-03-17T08:22:43.691Z,1.43
2018-03-17T08:25:13.358Z,1.30
2018-03-17T08:27:42.456Z,1.50
2018-03-17T08:30:11.535Z,1.50
2018-03-17T08:32:40.595Z,1.57
2018-03-17T08:35:09.655Z,1.70
2018-03-17T08:37:39.025Z,1.60
2018-03-17T08:40:08.100Z,1.43
2018-03-17T08:42:37.162Z,1.50
2018-03-17T08:45:06.247Z,1.40
2018-03-17T08:47:35.303Z,1.40
2018-03-17T08:50:04.366Z,1.30
2018-03-17T08:52:33.441Z,1.50
2018-03-17T08:55:02.503Z,1.50
2018-03-17T08:57:31.580Z,1.63
2018-03-17T09:00:00.961Z,1.40
2018-03-17T09:02:30.030Z,1.40
2018-03-17T09:04:59.097Z,1.60
2018-03-17T09:07:28.186Z,1.40
2018-03-17T09:09:57.242Z,1.80
2018-03-17T09:12:26.318Z,1.50
2018-03-17T09:14:55.402Z,1.50
2018-03-17T09:17:24.563Z,1.47
2018-03-17T09:19:53.622Z,1.20
2018-03-17T09:22:23.050Z,1.50
2018-03-17T09:24:52.108Z,1.60
2018-03-17T09:27:21.170Z,1.50
2018-03-17T09:29:50.245Z,1.60
2018-03-17T09:32:19.150Z,1.50
2018-03-17T09:34:48.198Z,1.63
2018-03-17T09:37:17.454Z,1.40
2018-03-17T09:39:46.505Z,1.43
2018-03-17T09:42:15.581Z,1.60
2018-03-17T09:44:45.002Z,1.57
2018-03-17T09:47:14.073Z,1.43
2018-03-17T09:49:43.134Z,1.43
2018-03-17T09:52:12.630Z,1.67
2018-03-17T09:54:41.851Z,1.43
2018-03-17T09:57:10.841Z,1.37
2018-03-17T09:59:39.929Z,1.53
2018-03-17T10:02:09.004Z,1.60
2018-03-17T10:04:38.095Z,1.20
2018-03-17T10:07:07.169Z,1.40
2018-03-17T10:09:36.229Z,1.50
2018-03-17T10:12:05.283Z,1.70
2018-03-17T10:14:34.359Z,1.70
2018-03-17T10:17:03.422Z,1.50
2018-03-17T10:19:32.485Z,1.90
2018-03-17T10:22:01.950Z,1.57
2018-03-17T10:24:31.009Z,1.57
2018-03-17T10:27:00.066Z,1.20
2018-03-17T10:29:29.194Z,1.40
2018-03-17T10:31:58.440Z,1.60
2018-03-17T10:34:27.508Z,1.47
2018-03-17T10:36:56.598Z,1.63
2018-03-17T10:39:25.659Z,1.77
2018-03-17T10:41:54.758Z,1.50
2018-03-17T10:44:23.846Z,1.67
2018-03-17T10:46:52.909Z,1.60
2018-03-17T10:49:22.297Z,1.67
2018-03-17T10:51:51.823Z,1.58
2018-03-17T10:54:21.019Z,1.30
2018-03-17T10:56:50.094Z,1.43
2018-03-17T10:59:19.022Z,1.53
2018-03-17T11:01:47.897Z,1.47
2018-03-17T11:04:16.971Z,1.27
2018-03-17T11:06:46.376Z,1.57
2018-03-17T11:09:15.448Z,1.20
2018-03-17T11:11:44.371Z,1.67
2018-03-17T11:14:13.456Z,1.70
2018-03-17T11:16:42.557Z,1.60
2018-03-17T11:19:11.623Z,1.60
2018-03-17T11:21:40.722Z,1.57
2018-03-17T11:24:09.786Z,1.97
2018-03-17T11:26:39.149Z,1.65
2018-03-17T11:29:08.051Z,1.40
2018-03-17T11:31:37.106Z,1.30
2018-03-17T11:34:06.158Z,1.53
2018-03-17T11:36:35.511Z,1.90
2018-03-17T11:39:04.081Z,1.80
2018-03-17T11:41:32.951Z,1.37
2018-03-17T11:44:02.386Z,1.50
2018-03-17T11:46:31.456Z,1.57
2018-03-17T11:49:00.537Z,1.60
2018-03-17T11:51:30.106Z,1.80
2018-03-17T11:53:59.166Z,1.47
2018-03-17T11:56:28.219Z,1.80
2018-03-17T11:58:57.738Z,1.50
2018-03-17T12:01:26.794Z,1.57
2018-03-17T12:03:55.873Z,1.50
2018-03-17T12:06:25.294Z,1.63
2018-03-17T12:08:54.342Z,1.50
2018-03-17T12:11:23.415Z,1.70
2018-03-17T12:13:52.506Z,1.60
2018-03-17T12:16:21.597Z,1.57
2018-03-17T12:18:50.665Z,1.90
2018-03-17T12:21:19.759Z,1.67
2018-03-17T12:23:48.844Z,1.53
2018-03-17T12:26:17.922Z,2.00
2018-03-17T12:28:47.035Z,1.80
2018-03-17T12:31:16.102Z,2.00
2018-03-17T12:33:45.153Z,1.63
2018-03-17T12:36:14.243Z,1.57
2018-03-17T12:38:43.331Z,1.67
2018-03-17T12:41:12.425Z,1.50
2018-03-17T12:43:41.527Z,1.70
2018-03-17T12:46:10.619Z,1.70
2018-03-17T12:48:39.704Z,2.00
2018-03-17T12:51:08.788Z,1.60
2018-03-17T12:53:37.888Z,1.77
2018-03-17T12:56:08.061Z,2.03
2018-03-17T12:58:37.128Z,1.63
2018-03-17T13:01:06.182Z,1.80
2018-03-17T13:03:35.304Z,2.23
2018-03-17T13:06:04.364Z,1.80
2018-03-17T13:08:33.427Z,2.03
2018-03-17T13:11:03.296Z,2.00
2018-03-17T13:13:32.392Z,4.30
2018-03-17T13:16:01.460Z,1.90
2018-03-17T13:18:30.553Z,3.63
2018-03-17T13:20:59.610Z,2.33
2018-03-17T13:23:29.246Z,2.60
2018-03-17T13:25:58.339Z,5.10
2018-03-17T13:28:28.910Z,2.75
2018-03-17T13:30:58.010Z,2.13
2018-03-17T13:33:27.214Z,3.87
2018-03-17T13:36:08.222Z,2.20
2018-03-17T13:38:37.304Z,1.50
2018-03-17T13:41:06.119Z,1.57
2018-03-17T13:43:35.549Z,1.83
2018-03-17T13:46:04.376Z,3.77
2018-03-17T13:48:33.258Z,2.20
2018-03-17T13:51:02.545Z,1.90
2018-03-17T13:53:31.604Z,1.70
2018-03-17T13:56:06.117Z,1.93
2018-03-17T13:58:35.284Z,1.40
2018-03-17T14:01:04.529Z,1.97
2018-03-17T14:03:33.646Z,1.70
2018-03-17T14:06:02.540Z,1.87
2018-03-17T14:08:31.602Z,1.90
2018-03-17T14:11:00.948Z,2.13
2018-03-17T14:13:30.148Z,2.00
2018-03-17T14:15:59.215Z,2.47
2018-03-17T14:18:28.628Z,2.60
2018-03-17T14:20:57.685Z,2.73
2018-03-17T14:23:26.738Z,2.97
2018-03-17T14:25:55.822Z,3.23
2018-03-17T14:28:25.075Z,3.00
2018-03-17T14:30:54.165Z,3.17
2018-03-17T14:33:23.389Z,3.70
2018-03-17T14:35:52.883Z,3.80
2018-03-17T14:38:21.938Z,3.63
2018-03-17T14:40:51.422Z,3.43
2018-03-17T14:43:20.517Z,3.23
2018-03-17T14:45:49.579Z,3.60
2018-03-17T14:48:19.000Z,3.27
2018-03-17T14:50:48.067Z,2.97
2018-03-17T14:53:17.241Z,3.33
2018-03-17T14:55:46.904Z,3.10
2018-03-17T14:58:15.961Z,3.23
2018-03-17T15:00:45.119Z,3.30
2018-03-17T15:03:14.199Z,3.63
2018-03-17T15:05:43.254Z,3.17
2018-03-17T15:08:12.314Z,2.63
2018-03-17T15:10:41.697Z,2.57
2018-03-17T15:13:10.764Z,2.67
2018-03-17T15:15:39.770Z,2.93
2018-03-17T15:18:09.237Z,2.60
2018-03-17T15:20:38.290Z,2.70
2018-03-17T15:23:07.358Z,2.60
2018-03-17T15:25:36.443Z,2.40
2018-03-17T15:28:05.530Z,2.77
2018-03-17T15:30:34.588Z,2.60
2018-03-17T15:33:03.680Z,2.40
2018-03-17T15:35:32.771Z,2.10
2018-03-17T15:38:01.825Z,2.27
2018-03-17T15:40:30.943Z,2.60
2018-03-17T15:43:00.001Z,2.20
2018-03-17T15:45:29.796Z,2.17
2018-03-17T15:47:58.898Z,2.30
2018-03-17T15:50:27.960Z,1.90
2018-03-17T15:52:57.026Z,2.30
2018-03-17T15:55:26.108Z,2.33
2018-03-17T15:57:55.163Z,1.97
2018-03-17T16:00:24.217Z,1.90
2018-03-17T16:02:53.307Z,1.90
2018-03-17T16:05:22.380Z,2.00
2018-03-17T16:07:51.440Z,2.30
2018-03-17T16:10:20.571Z,1.87
2018-03-17T16:12:49.642Z,1.93
2018-03-17T16:15:18.706Z,1.60
2018-03-17T16:17:47.782Z,2.20
2018-03-17T16:20:16.844Z,1.70
2018-03-17T16:22:45.907Z,2.07
2018-03-17T16:25:15.130Z,1.63
2018-03-17T16:27:44.237Z,1.90
2018-03-17T16:30:13.332Z,1.80
2018-03-17T16:32:42.402Z,2.07
2018-03-17T16:35:11.469Z,1.97
2018-03-17T16:37:40.536Z,1.80
2018-03-17T16:40:10.096Z,1.77
2018-03-17T16:42:39.154Z,2.13
2018-03-17T16:45:08.209Z,1.80
2018-03-17T16:47:37.591Z,1.87
2018-03-17T16:50:06.647Z,1.87
2018-03-17T16:52:35.701Z,2.07
2018-03-17T16:55:04.783Z,1.60
2018-03-17T16:57:33.850Z,1.90
2018-03-17T17:00:02.814Z,1.63
2018-03-17T17:02:31.715Z,1.57
2018-03-17T17:05:00.608Z,1.80
2018-03-17T17:07:29.674Z,1.90
2018-03-17T17:09:58.757Z,2.10
2018-03-17T17:12:27.846Z,2.10
2018-03-17T17:14:56.718Z,1.70
2018-03-17T17:17:25.853Z,1.80
2018-03-17T17:19:55.047Z,2.10
2018-03-17T17:22:24.104Z,1.77
2018-03-17T17:24:53.183Z,2.00
2018-03-17T17:27:22.318Z,1.87
2018-03-17T17:29:51.385Z,1.90
2018-03-17T17:32:20.460Z,1.80
2018-03-17T17:34:49.516Z,1.93
2018-03-17T17:37:18.581Z,1.80
2018-03-17T17:39:47.673Z,1.70
2018-03-17T17:42:16.737Z,2.07
2018-03-17T17:44:45.790Z,1.97
2018-03-17T17:47:14.871Z,1.60
2018-03-17T17:49:43.940Z,2.10
2018-03-17T17:52:12.994Z,1.80
2018-03-17T17:54:41.839Z,1.90
2018-03-17T17:57:10.896Z,2.17
2018-03-17T17:59:39.969Z,1.57
2018-03-17T18:02:09.225Z,1.73
2018-03-17T18:04:38.290Z,1.60
2018-03-17T18:07:07.349Z,1.70
2018-03-17T18:09:36.425Z,1.80
2018-03-17T18:12:05.478Z,2.33
2018-03-17T18:14:34.530Z,1.87
2018-03-17T18:17:04.224Z,1.97
2018-03-17T18:19:33.287Z,1.87
2018-03-17T18:22:02.339Z,2.17
2018-03-17T18:24:31.426Z,2.30
2018-03-17T18:27:00.487Z,1.53
2018-03-17T18:29:29.567Z,1.70
2018-03-17T18:31:58.642Z,1.90
2018-03-17T18:34:27.710Z,2.10
2018-03-17T18:36:56.764Z,2.00
2018-03-17T18:39:25.848Z,1.77
2018-03-17T18:41:54.910Z,1.70
2018-03-17T18:44:23.969Z,2.10
2018-03-17T18:46:53.141Z,1.70
2018-03-17T18:49:22.208Z,1.83
2018-03-17T18:51:51.271Z,1.70
2018-03-17T18:54:20.374Z,2.13
2018-03-17T18:56:49.441Z,1.70
2018-03-17T18:59:18.500Z,2.07
2018-03-17T19:01:47.574Z,1.67
2018-03-17T19:04:16.690Z,1.80
2018-03-17T19:06:45.744Z,1.87
2018-03-17T19:09:14.834Z,1.70
2018-03-17T19:11:43.886Z,1.90
2018-03-17T19:14:12.971Z,1.80
2018-03-17T19:16:42.054Z,1.83
2018-03-17T19:19:11.132Z,1.90
2018-03-17T19:21:40.206Z,2.00
2018-03-17T19:24:09.288Z,1.80
2018-03-17T19:26:38.354Z,1.50
2018-03-17T19:29:07.442Z,1.47
2018-03-17T19:31:36.513Z,1.60
2018-03-17T19:34:05.578Z,1.80
2018-03-17T19:36:34.640Z,1.67
2018-03-17T19:39:03.295Z,1.67
2018-03-17T19:41:32.361Z,1.97
2018-03-17T19:44:01.498Z,2.00
2018-03-17T19:46:30.580Z,1.47
2018-03-17T19:48:59.669Z,1.80
2018-03-17T19:51:28.726Z,1.70
2018-03-17T19:53:57.818Z,1.80
2018-03-17T19:56:26.866Z,2.03
2018-03-17T19:58:55.914Z,2.07
2018-03-17T20:01:25.070Z,1.70
2018-03-17T20:03:54.307Z,1.93
2018-03-17T20:06:23.443Z,1.80
2018-03-17T20:08:52.530Z,1.73
2018-03-17T20:11:21.398Z,1.70
2018-03-17T20:13:50.280Z,1.70
2018-03-17T20:16:19.382Z,1.87
2018-03-17T20:18:48.635Z,1.87
2018-03-17T20:21:17.730Z,1.80
2018-03-17T20:23:47.338Z,2.00
2018-03-17T20:26:16.394Z,1.93
2018-03-17T20:28:45.457Z,1.90
2018-03-17T20:31:15.174Z,1.73
2018-03-17T20:33:44.230Z,1.87
2018-03-17T20:36:13.282Z,2.00
2018-03-17T20:38:42.378Z,1.97
2018-03-17T20:41:11.447Z,1.97
2018-03-17T20:43:40.508Z,1.77
2018-03-17T20:46:09.914Z,1.73
2018-03-17T20:48:38.970Z,2.00
2018-03-17T20:51:08.026Z,1.83
2018-03-17T20:53:37.390Z,1.87
2018-03-17T20:56:06.445Z,1.67
2018-03-17T20:58:35.495Z,2.13
2018-03-17T21:01:04.588Z,2.20
2018-03-17T21:03:33.647Z,1.60
2018-03-17T21:06:02.542Z,2.07
2018-03-17T21:08:31.628Z,2.07
2018-03-17T21:11:00.930Z,1.83
2018-03-17T21:13:30.150Z,1.90
2018-03-17T21:15:59.584Z,1.93
2018-03-17T21:18:28.643Z,1.70
2018-03-17T21:20:57.711Z,1.70
2018-03-17T21:23:27.162Z,1.80
2018-03-17T21:25:56.214Z,1.80
2018-03-17T21:28:25.294Z,1.90
2018-03-17T21:30:54.753Z,1.83
2018-03-17T21:33:23.593Z,1.80
2018-03-17T21:35:52.667Z,1.83
2018-03-17T21:38:22.047Z,1.60
2018-03-17T21:40:51.169Z,1.63
2018-03-17T21:43:20.389Z,1.47
2018-03-17T21:45:49.836Z,1.50
2018-03-17T21:48:18.903Z,1.50
2018-03-17T21:50:47.962Z,2.10
2018-03-17T21:53:17.443Z,1.77
2018-03-17T21:55:46.519Z,1.87
2018-03-17T21:58:15.584Z,1.20
2018-03-17T22:00:45.057Z,1.50
2018-03-17T22:03:14.294Z,1.40
2018-03-17T22:05:43.433Z,1.70
2018-03-17T22:08:12.801Z,1.83
2018-03-17T22:10:41.858Z,1.80
2018-03-17T22:13:10.922Z,1.40
2018-03-17T22:15:40.306Z,1.60
2018-03-17T22:18:09.357Z,1.57
2018-03-17T22:20:38.433Z,1.77
2018-03-17T22:23:07.797Z,1.80
2018-03-17T22:25:36.864Z,1.40
2018-03-17T22:28:05.921Z,1.50
2018-03-17T22:30:35.389Z,1.50
2018-03-17T22:33:04.446Z,1.87
2018-03-17T22:35:33.505Z,1.43
2018-03-17T22:38:02.830Z,1.30
2018-03-17T22:40:31.890Z,1.43
2018-03-17T22:43:00.945Z,1.30
2018-03-17T22:45:30.322Z,1.57
2018-03-17T22:47:59.378Z,1.70
2018-03-17T22:50:28.438Z,1.37
2018-03-17T22:52:57.863Z,1.77
2018-03-17T22:55:26.920Z,1.50
2018-03-17T22:57:56.067Z,1.57
2018-03-17T23:00:25.150Z,1.30
2018-03-17T23:02:54.260Z,1.87
2018-03-17T23:05:23.349Z,1.50
2018-03-17T23:07:52.422Z,1.60
2018-03-17T23:10:21.478Z,1.87
2018-03-17T23:12:50.752Z,1.60
2018-03-17T23:15:19.857Z,2.00
2018-03-17T23:17:49.126Z,1.40
2018-03-17T23:20:18.187Z,1.67
2018-03-17T23:22:47.265Z,1.83
2018-03-17T23:25:16.325Z,1.43
2018-03-17T23:27:45.386Z,1.40
2018-03-17T23:30:14.510Z,1.30
2018-03-17T23:32:43.381Z,1.80
2018-03-17T23:35:12.446Z,1.60
2018-03-17T23:37:41.872Z,1.70
2018-03-17T23:40:10.734Z,1.50
2018-03-17T23:42:39.785Z,1.67
2018-03-17T23:45:08.862Z,1.80
2018-03-17T23:47:37.735Z,1.50
2018-03-17T23:50:06.614Z,1.60
2018-03-17T23:52:35.806Z,1.40
2018-03-17T23:55:04.693Z,1.63
2018-03-17T23:57:33.757Z,1.37
